createdAt,value
2018-06-01T14:43:36.249Z,4.17
2018-06-01T14:46:04.603Z,4.50
2018-06-01T14:48:32.024Z,4.70
2018-06-01T14:51:00.542Z,4.60
2018-06-01T14:53:27.978Z,4.40
2018-06-01T14:55:55.388Z,5.20
2018-06-01T14:58:26.914Z,4.57
2018-06-01T15:00:54.349Z,4.97
2018-06-01T15:03:21.778Z,4.60
2018-06-01T15:05:49.225Z,4.03
2018-06-01T15:08:16.732Z,4.50
2018-06-01T15:10:44.105Z,3.57
2018-06-01T15:13:11.555Z,4.67
2018-06-01T15:15:39.895Z,4.53
2018-06-01T15:18:07.338Z,4.10
2018-06-01T15:20:34.746Z,4.20
2018-06-01T15:23:02.498Z,3.90
2018-06-01T15:25:29.998Z,4.07
2018-06-01T15:27:58.434Z,4.40
2018-06-01T15:30:25.855Z,4.70
2018-06-01T15:32:53.306Z,4.10
2018-06-01T15:35:20.732Z,4.77
2018-06-01T15:37:48.189Z,4.47
2018-06-01T15:40:15.613Z,4.27
2018-06-01T15:42:43.045Z,4.30
2018-06-01T15:45:10.498Z,3.93
2018-06-01T15:47:38.909Z,4.53
2018-06-01T15:50:06.446Z,3.93
2018-06-01T15:52:33.850Z,3.90
2018-06-01T15:55:01.304Z,4.40
2018-06-01T15:57:28.730Z,4.40
2018-06-01T15:59:57.109Z,4.13
2018-06-01T16:02:24.565Z,4.30
2018-06-01T16:04:52.007Z,4.47
2018-06-01T16:07:19.426Z,4.37
2018-06-01T16:09:46.893Z,4.43
2018-06-01T16:12:14.321Z,4.17
2018-06-01T16:14:41.770Z,4.47
2018-06-01T16:17:09.190Z,4.50
2018-06-01T16:19:36.661Z,3.87
2018-06-01T16:22:04.225Z,3.80
2018-06-01T16:24:32.596Z,3.63
2018-06-01T16:27:00.034Z,4.30
2018-06-01T16:29:27.450Z,4.80
2018-06-01T16:31:54.890Z,5.03
2018-06-01T16:34:22.306Z,4.80
2018-06-01T16:36:49.743Z,4.20
2018-06-01T16:39:17.793Z,4.07
2018-06-01T16:41:45.233Z,4.40
2018-06-01T16:44:12.650Z,4.30
2018-06-01T16:46:40.127Z,4.10
2018-06-01T16:49:12.255Z,4.40
2018-06-01T16:51:39.698Z,4.87
2018-06-01T16:54:08.018Z,4.40
2018-06-01T16:56:35.486Z,5.00
2018-06-01T16:59:02.903Z,4.97
2018-06-01T17:01:30.322Z,5.90
2018-06-01T17:03:57.778Z,4.87
2018-06-01T17:06:25.202Z,5.10
2018-06-01T17:08:53.577Z,4.50
2018-06-01T17:11:20.993Z,4.67
2018-06-01T17:13:48.488Z,5.03
2018-06-01T17:16:15.906Z,4.77
2018-06-01T17:18:43.363Z,4.90
2018-06-01T17:21:10.780Z,4.90
2018-06-01T17:23:39.145Z,5.40
2018-06-01T17:26:06.587Z,4.50
2018-06-01T17:28:34.031Z,6.67
2018-06-01T17:31:01.462Z,4.80
2018-06-01T17:33:28.901Z,5.67
2018-06-01T17:35:56.321Z,6.47
2018-06-01T17:38:28.577Z,5.83
2018-06-01T17:40:55.999Z,6.33
2018-06-01T17:43:23.461Z,5.83
2018-06-01T17:45:50.889Z,6.60
2018-06-01T17:48:20.366Z,6.50
2018-06-01T17:50:47.786Z,6.63
2018-06-01T17:53:15.259Z,6.40
2018-06-01T17:55:42.742Z,6.10
2018-06-01T17:58:11.081Z,5.60
2018-06-01T18:00:39.490Z,6.60
2018-06-01T18:03:06.909Z,5.90
2018-06-01T18:05:34.356Z,6.07
2018-06-01T18:08:01.843Z,6.10
2018-06-01T18:10:29.284Z,6.67
2018-06-01T18:12:56.705Z,6.37
2018-06-01T18:15:24.138Z,6.10
2018-06-01T18:17:52.451Z,7.50
2018-06-01T18:20:19.895Z,6.37
2018-06-01T18:22:47.311Z,5.13
2018-06-01T18:25:14.750Z,6.60
2018-06-01T18:27:42.164Z,6.00
2018-06-01T18:30:09.610Z,6.20
2018-06-01T18:32:38.034Z,6.20
2018-06-01T18:35:05.473Z,6.23
2018-06-01T18:37:32.952Z,8.40
2018-06-01T18:40:00.405Z,5.43
2018-06-01T18:42:27.824Z,6.03
2018-06-01T18:44:56.153Z,7.87
2018-06-01T18:47:24.561Z,6.43
2018-06-01T18:49:51.981Z,7.20
2018-06-01T18:52:19.424Z,6.83
2018-06-01T18:54:46.834Z,6.10
2018-06-01T18:57:14.274Z,6.27
2018-06-01T18:59:42.613Z,6.13
2018-06-01T19:02:10.065Z,8.40
2018-06-01T19:04:37.490Z,7.17
2018-06-01T19:07:04.938Z,7.20
2018-06-01T19:09:32.345Z,6.70
2018-06-01T19:11:59.825Z,7.00
2018-06-01T19:14:27.276Z,6.60
2018-06-01T19:16:54.726Z,6.37
2018-06-01T19:19:22.173Z,6.77
2018-06-01T19:21:49.630Z,6.77
2018-06-01T19:24:17.045Z,6.73
2018-06-01T19:26:44.505Z,7.10
2018-06-01T19:29:11.921Z,7.70
2018-06-01T19:31:39.376Z,7.80
2018-06-01T19:34:06.814Z,8.30
2018-06-01T19:36:34.284Z,7.87
2018-06-01T19:39:01.730Z,6.60
2018-06-01T19:41:29.160Z,6.90
2018-06-01T19:43:56.600Z,6.87
2018-06-01T19:46:24.023Z,7.30
2018-06-01T19:48:51.469Z,7.40
2018-06-01T19:51:18.891Z,7.43
2018-06-01T19:53:46.325Z,5.90
2018-06-01T19:56:13.741Z,7.00
2018-06-01T19:58:41.186Z,5.80
2018-06-01T20:01:08.625Z,6.37
2018-06-01T20:03:43.556Z,7.53
2018-06-01T20:06:10.969Z,7.10
2018-06-01T20:08:38.427Z,6.83
2018-06-01T20:11:05.859Z,6.87
2018-06-01T20:13:33.294Z,6.70
2018-06-01T20:16:02.682Z,7.10
2018-06-01T20:18:31.095Z,7.20
2018-06-01T20:20:58.519Z,6.13
2018-06-01T20:23:25.965Z,8.53
2018-06-01T20:25:53.378Z,7.00
2018-06-01T20:28:20.803Z,7.90
2018-06-01T20:30:48.261Z,7.83
2018-06-01T20:33:16.616Z,6.80
2018-06-01T20:35:45.024Z,6.30
2018-06-01T20:38:12.446Z,6.40
2018-06-01T20:40:39.934Z,7.77
2018-06-01T20:43:07.371Z,8.73
2018-06-01T20:45:34.824Z,8.37
2018-06-01T20:48:02.241Z,7.10
2018-06-01T20:50:30.788Z,7.60
2018-06-01T20:52:59.133Z,8.03
2018-06-01T20:55:26.727Z,7.33
2018-06-01T20:57:54.961Z,6.63
2018-06-01T21:00:22.385Z,7.20
2018-06-01T21:02:49.841Z,7.23
2018-06-01T21:05:17.289Z,7.37
2018-06-01T21:07:44.727Z,6.07
2018-06-01T21:10:13.101Z,6.47
2018-06-01T21:12:41.495Z,5.20
2018-06-01T21:15:08.923Z,8.10
2018-06-01T21:17:40.195Z,6.13
2018-06-01T21:20:07.610Z,5.97
2018-06-01T21:22:35.098Z,6.60
2018-06-01T21:25:02.536Z,6.40
2018-06-01T21:27:29.990Z,6.83
2018-06-01T21:29:57.464Z,6.50
2018-06-01T21:32:24.943Z,6.60
2018-06-01T21:34:52.360Z,7.40
2018-06-01T21:37:19.770Z,6.40
2018-06-01T21:39:47.301Z,7.43
2018-06-01T21:42:14.734Z,6.90
2018-06-01T21:44:43.170Z,7.10
2018-06-01T21:47:11.411Z,8.47
2018-06-01T21:49:38.865Z,6.70
2018-06-01T21:52:06.310Z,6.30
2018-06-01T21:54:34.691Z,7.20
2018-06-01T21:57:02.107Z,6.73
2018-06-01T21:59:30.518Z,6.20
2018-06-01T22:01:57.931Z,7.10
2018-06-01T22:04:25.387Z,6.80
2018-06-01T22:06:52.809Z,7.57
2018-06-01T22:09:20.241Z,6.03
2018-06-01T22:11:48.618Z,6.87
2018-06-01T22:14:16.076Z,7.37
2018-06-01T22:16:43.498Z,5.70
2018-06-01T22:19:10.974Z,6.30
2018-06-01T22:21:38.385Z,6.13
2018-06-01T22:24:05.807Z,5.43
2018-06-01T22:26:33.266Z,5.63
2018-06-01T22:29:00.688Z,6.07
2018-06-01T22:31:28.125Z,6.60
2018-06-01T22:33:55.554Z,6.00
2018-06-01T22:36:22.991Z,6.80
2018-06-01T22:38:50.420Z,6.67
2018-06-01T22:41:17.870Z,6.40
2018-06-01T22:43:45.285Z,6.33
2018-06-01T22:46:12.788Z,6.60
2018-06-01T22:48:40.214Z,6.47
2018-06-01T22:51:07.753Z,6.20
2018-06-01T22:53:35.165Z,6.60
2018-06-01T22:56:02.585Z,6.47
2018-06-01T22:58:31.151Z,7.63
2018-06-01T23:00:58.563Z,6.70
2018-06-01T23:03:26.009Z,6.67
2018-06-01T23:05:53.425Z,5.77
2018-06-01T23:08:20.871Z,6.27
2018-06-01T23:10:48.278Z,5.83
2018-06-01T23:13:15.718Z,5.00
2018-06-01T23:15:43.134Z,6.10
2018-06-01T23:18:10.585Z,5.10
2018-06-01T23:20:38.005Z,6.33
2018-06-01T23:23:06.366Z,5.07
2018-06-01T23:25:33.777Z,6.23
2018-06-01T23:28:01.231Z,6.23
2018-06-01T23:30:28.641Z,5.97
2018-06-01T23:32:56.085Z,6.80
2018-06-01T23:35:23.866Z,6.33
2018-06-01T23:37:51.305Z,7.00
2018-06-01T23:40:18.729Z,7.93
2018-06-01T23:42:46.170Z,6.50
2018-06-01T23:45:13.585Z,7.37
2018-06-01T23:47:41.013Z,8.30
2018-06-01T23:50:08.457Z,8.70
2018-06-01T23:52:35.874Z,7.20
2018-06-01T23:55:03.886Z,9.23
2018-06-01T23:57:31.306Z,8.10
2018-06-01T23:59:58.741Z,7.80
